createdAt,value
2018-11-01T00:00:43.752Z,1014.13
2018-11-01T00:01:43.891Z,1014.08
2018-11-01T00:02:44.063Z,1014.07
2018-11-01T00:03:43.724Z,1014.11
2018-11-01T00:04:43.731Z,1014.11
2018-11-01T00:05:43.733Z,1014.11
2018-11-01T00:06:43.742Z,1014.11
2018-11-01T00:07:43.784Z,1014.1
2018-11-01T00:08:43.749Z,1014.13
2018-11-01T00:09:43.778Z,1014.17
2018-11-01T00:10:43.736Z,1014.23
2018-11-01T00:11:44.163Z,1014.22
2018-11-01T00:12:43.719Z,1014.3
2018-11-01T00:13:43.734Z,1014.26
2018-11-01T00:14:43.957Z,1014.3
2018-11-01T00:15:43.742Z,1014.35
2018-11-01T00:16:43.740Z,1014.3
2018-11-01T00:17:43.708Z,1014.31
2018-11-01T00:18:43.746Z,1014.31
2018-11-01T00:19:43.696Z,1014.29
2018-11-01T00:20:43.715Z,1014.32
2018-11-01T00:21:43.791Z,1014.29
2018-11-01T00:22:43.698Z,1014.3
2018-11-01T00:23:43.701Z,1014.32
2018-11-01T00:24:43.721Z,1014.28
2018-11-01T00:25:43.709Z,1014.28
2018-11-01T00:26:43.737Z,1014.26
2018-11-01T00:27:43.731Z,1014.32
2018-11-01T00:28:43.706Z,1014.4
2018-11-01T00:29:43.686Z,1014.42
2018-11-01T00:30:43.700Z,1014.43
2018-11-01T00:31:44.084Z,1014.38
2018-11-01T00:32:43.768Z,1014.39
2018-11-01T00:33:43.692Z,1014.37
2018-11-01T00:34:43.692Z,1014.34
2018-11-01T00:35:43.707Z,1014.36
2018-11-01T00:36:43.706Z,1014.32
2018-11-01T00:37:43.693Z,1014.28
2018-11-01T00:38:43.756Z,1014.3
2018-11-01T00:39:43.729Z,1014.31
2018-11-01T00:40:43.671Z,1014.32
2018-11-01T00:41:43.678Z,1014.32
2018-11-01T00:42:43.779Z,1014.35
2018-11-01T00:43:43.939Z,1014.36
2018-11-01T00:44:43.692Z,1014.33
2018-11-01T00:45:43.659Z,1014.34
2018-11-01T00:46:43.704Z,1014.28
2018-11-01T00:47:43.738Z,1014.33
2018-11-01T00:48:43.693Z,1014.25
2018-11-01T00:49:43.752Z,1014.18
2018-11-01T00:50:43.811Z,1014.16
2018-11-01T00:51:43.661Z,1014.14
2018-11-01T00:52:43.732Z,1014.1
2018-11-01T00:53:43.674Z,1014.15
2018-11-01T00:54:43.690Z,1014.18
2018-11-01T00:55:43.648Z,1014.14
2018-11-01T00:56:43.820Z,1014.16
2018-11-01T00:57:43.704Z,1014.15
2018-11-01T00:58:43.638Z,1014.18
2018-11-01T00:59:44.102Z,1014.14
2018-11-01T01:00:43.928Z,1014.17
2018-11-01T01:01:43.652Z,1014.14
2018-11-01T01:02:43.770Z,1014.08
2018-11-01T01:03:43.632Z,1014.09
2018-11-01T01:04:43.663Z,1014.11
2018-11-01T01:05:43.670Z,1014.17
2018-11-01T01:06:43.667Z,1014.19
2018-11-01T01:07:43.671Z,1014.23
2018-11-01T01:08:43.694Z,1014.27
2018-11-01T01:09:43.625Z,1014.21
2018-11-01T01:10:43.633Z,1014.25
2018-11-01T01:11:43.671Z,1014.24
2018-11-01T01:12:43.640Z,1014.26
2018-11-01T01:13:44.047Z,1014.3
2018-11-01T01:14:43.692Z,1014.28
2018-11-01T01:15:43.695Z,1014.35
2018-11-01T01:16:43.644Z,1014.41
2018-11-01T01:17:43.676Z,1014.42
2018-11-01T01:18:43.702Z,1014.42
2018-11-01T01:19:43.609Z,1014.38
2018-11-01T01:20:43.657Z,1014.35
2018-11-01T01:21:43.736Z,1014.37
2018-11-01T01:22:43.638Z,1014.3
2018-11-01T01:23:43.655Z,1014.28
2018-11-01T01:24:43.626Z,1014.29
2018-11-01T01:25:43.691Z,1014.28
2018-11-01T01:26:43.627Z,1014.28
2018-11-01T01:27:43.614Z,1014.26
2018-11-01T01:28:43.629Z,1014.27
2018-11-01T01:29:44.057Z,1014.24
2018-11-01T01:30:43.628Z,1014.2
2018-11-01T01:31:43.629Z,1014.15
2018-11-01T01:32:43.686Z,1014.19
2018-11-01T01:33:43.591Z,1014.16
2018-11-01T01:34:43.789Z,1014.13
2018-11-01T01:35:43.629Z,1014.14
2018-11-01T01:36:43.695Z,1014.14
2018-11-01T01:37:43.601Z,1014.14
2018-11-01T01:38:44.121Z,1014.11
2018-11-01T01:39:43.608Z,1014.09
2018-11-01T01:40:43.592Z,1014.09
2018-11-01T01:41:43.612Z,1014.05
2018-11-01T01:42:43.652Z,1014.07
2018-11-01T01:43:43.610Z,1014.05
2018-11-01T01:44:43.592Z,1014.09
2018-11-01T01:45:43.701Z,1014.08
2018-11-01T01:46:43.628Z,1014.05
2018-11-01T01:47:43.610Z,1014.06
2018-11-01T01:48:43.639Z,1014.08
2018-11-01T01:49:43.567Z,1014.03
2018-11-01T01:50:43.822Z,1013.96
2018-11-01T01:51:43.997Z,1013.95
2018-11-01T01:52:43.566Z,1013.91
2018-11-01T01:53:43.591Z,1013.91
2018-11-01T01:54:43.620Z,1013.93
2018-11-01T01:55:43.590Z,1013.96
2018-11-01T01:56:43.571Z,1013.99
2018-11-01T01:57:43.597Z,1013.89
2018-11-01T01:58:43.683Z,1013.94
2018-11-01T01:59:43.553Z,1013.87
2018-11-01T02:00:44.188Z,1013.83
2018-11-01T02:01:43.954Z,1013.79
2018-11-01T02:02:43.576Z,1013.76
2018-11-01T02:03:43.582Z,1013.77
2018-11-01T02:04:43.570Z,1013.76
2018-11-01T02:05:43.552Z,1013.72
2018-11-01T02:06:43.564Z,1013.69
2018-11-01T02:07:43.645Z,1013.73
2018-11-01T02:08:43.600Z,1013.68
2018-11-01T02:09:43.546Z,1013.68
2018-11-01T02:10:43.552Z,1013.69
2018-11-01T02:11:43.803Z,1013.64
2018-11-01T02:12:43.557Z,1013.61
2018-11-01T02:13:43.551Z,1013.58
2018-11-01T02:14:43.652Z,1013.56
2018-11-01T02:15:43.634Z,1013.6
2018-11-01T02:16:43.686Z,1013.65
2018-11-01T02:17:43.569Z,1013.62
2018-11-01T02:18:43.523Z,1013.58
2018-11-01T02:19:43.798Z,1013.59
2018-11-01T02:20:43.555Z,1013.58
2018-11-01T02:21:43.541Z,1013.61
2018-11-01T02:22:43.606Z,1013.6
2018-11-01T02:23:43.553Z,1013.56
2018-11-01T02:24:43.687Z,1013.55
2018-11-01T02:25:43.543Z,1013.45
2018-11-01T02:26:43.522Z,1013.43
2018-11-01T02:27:43.837Z,1013.37
2018-11-01T02:28:43.579Z,1013.36
2018-11-01T02:29:43.552Z,1013.33
2018-11-01T02:30:43.536Z,1013.34
2018-11-01T02:31:43.649Z,1013.36
2018-11-01T02:32:43.565Z,1013.33
2018-11-01T02:33:43.565Z,1013.36
2018-11-01T02:34:43.520Z,1013.42
2018-11-01T02:35:43.541Z,1013.42
2018-11-01T02:36:43.497Z,1013.43
2018-11-01T02:37:43.685Z,1013.38
2018-11-01T02:38:43.764Z,1013.44
2018-11-01T02:39:43.522Z,1013.42
2018-11-01T02:40:43.544Z,1013.41
2018-11-01T02:41:43.490Z,1013.42
2018-11-01T02:42:43.514Z,1013.41
2018-11-01T02:43:43.720Z,1013.41
2018-11-01T02:44:43.629Z,1013.38
2018-11-01T02:45:43.495Z,1013.43
2018-11-01T02:46:43.665Z,1013.52
2018-11-01T02:47:44.077Z,1013.43
2018-11-01T02:48:43.617Z,1013.44
2018-11-01T02:49:43.485Z,1013.44
2018-11-01T02:50:43.490Z,1013.42
2018-11-01T02:51:43.500Z,1013.46
2018-11-01T02:52:43.802Z,1013.42
2018-11-01T02:53:43.605Z,1013.48
2018-11-01T02:54:43.476Z,1013.44
2018-11-01T02:55:43.462Z,1013.41
2018-11-01T02:56:43.483Z,1013.49
2018-11-01T02:57:43.513Z,1013.54
2018-11-01T02:58:43.956Z,1013.57
2018-11-01T02:59:43.708Z,1013.54
2018-11-01T03:00:43.464Z,1013.58
2018-11-01T03:01:43.529Z,1013.63
2018-11-01T03:02:43.500Z,1013.62
2018-11-01T03:03:43.494Z,1013.69
2018-11-01T03:04:43.483Z,1013.65
2018-11-01T03:05:43.487Z,1013.63
2018-11-01T03:06:43.490Z,1013.57
2018-11-01T03:07:43.522Z,1013.55
2018-11-01T03:08:43.475Z,1013.57
2018-11-01T03:09:43.619Z,1013.62
2018-11-01T03:10:43.474Z,1013.65
2018-11-01T03:11:43.492Z,1013.63
2018-11-01T03:12:43.515Z,1013.66
2018-11-01T03:13:43.451Z,1013.66
2018-11-01T03:14:43.488Z,1013.64
2018-11-01T03:15:43.497Z,1013.6
2018-11-01T03:16:43.519Z,1013.57
2018-11-01T03:17:43.502Z,1013.53
2018-11-01T03:18:43.478Z,1013.59
2018-11-01T03:19:43.609Z,1013.48
2018-11-01T03:20:43.486Z,1013.53
2018-11-01T03:21:43.453Z,1013.45
2018-11-01T03:22:43.821Z,1013.44
2018-11-01T03:23:43.440Z,1013.39
2018-11-01T03:24:43.606Z,1013.34
2018-11-01T03:25:43.466Z,1013.32
2018-11-01T03:26:43.688Z,1013.28
2018-11-01T03:27:43.489Z,1013.31
2018-11-01T03:28:43.756Z,1013.29
2018-11-01T03:29:43.467Z,1013.35
2018-11-01T03:30:43.448Z,1013.31
2018-11-01T03:31:43.481Z,1013.35
2018-11-01T03:32:43.464Z,1013.32
2018-11-01T03:33:43.475Z,1013.36
2018-11-01T03:34:43.430Z,1013.37
2018-11-01T03:35:43.517Z,1013.3
2018-11-01T03:36:43.605Z,1013.42
2018-11-01T03:37:43.444Z,1013.46
2018-11-01T03:38:43.509Z,1013.42
2018-11-01T03:39:43.439Z,1013.43
2018-11-01T03:40:43.426Z,1013.38
2018-11-01T03:41:43.486Z,1013.38
2018-11-01T03:42:43.578Z,1013.32
2018-11-01T03:43:43.400Z,1013.37
2018-11-01T03:44:43.411Z,1013.39
2018-11-01T03:45:43.688Z,1013.39
2018-11-01T03:46:43.433Z,1013.34
2018-11-01T03:47:43.461Z,1013.37
2018-11-01T03:48:43.430Z,1013.42
2018-11-01T03:49:43.552Z,1013.49
2018-11-01T03:50:43.795Z,1013.5
2018-11-01T03:51:43.602Z,1013.58
2018-11-01T03:52:43.475Z,1013.62
2018-11-01T03:53:43.706Z,1013.62
2018-11-01T03:54:43.417Z,1013.62
2018-11-01T03:55:43.417Z,1013.56
2018-11-01T03:56:43.442Z,1013.6
2018-11-01T03:57:43.418Z,1013.62
2018-11-01T03:58:43.558Z,1013.58
2018-11-01T03:59:43.394Z,1013.57
2018-11-01T04:00:43.387Z,1013.64
2018-11-01T04:01:43.443Z,1013.6
2018-11-01T04:02:43.469Z,1013.55
2018-11-01T04:03:43.623Z,1013.56
2018-11-01T04:04:43.399Z,1013.57
2018-11-01T04:05:43.372Z,1013.58
2018-11-01T04:06:43.375Z,1013.59
2018-11-01T04:07:43.387Z,1013.53
2018-11-01T04:08:43.425Z,1013.6
2018-11-01T04:09:43.372Z,1013.55
2018-11-01T04:10:43.428Z,1013.57
2018-11-01T04:11:43.486Z,1013.54
2018-11-01T04:12:43.440Z,1013.57
2018-11-01T04:13:43.571Z,1013.6
2018-11-01T04:14:43.381Z,1013.61
2018-11-01T04:15:43.445Z,1013.57
2018-11-01T04:16:43.448Z,1013.46
2018-11-01T04:17:43.380Z,1013.44
2018-11-01T04:18:43.387Z,1013.38
2018-11-01T04:19:43.394Z,1013.33
2018-11-01T04:20:43.411Z,1013.31
2018-11-01T04:21:43.368Z,1013.29
2018-11-01T04:22:43.371Z,1013.21
2018-11-01T04:23:43.342Z,1013.27
2018-11-01T04:24:43.351Z,1013.24
2018-11-01T04:25:43.869Z,1013.33
2018-11-01T04:26:43.343Z,1013.31
2018-11-01T04:27:43.482Z,1013.37
2018-11-01T04:28:43.458Z,1013.28
2018-11-01T04:29:43.349Z,1013.27
2018-11-01T04:30:43.337Z,1013.23
2018-11-01T04:31:43.379Z,1013.11
2018-11-01T04:32:43.356Z,1013.15
2018-11-01T04:33:43.685Z,1013.13
2018-11-01T04:34:43.366Z,1013.17
2018-11-01T04:35:43.343Z,1013.14
2018-11-01T04:36:43.328Z,1013.18
2018-11-01T04:37:43.393Z,1013.17
2018-11-01T04:38:43.449Z,1013.24
2018-11-01T04:39:43.397Z,1013.19
2018-11-01T04:40:43.777Z,1013.19
2018-11-01T04:41:43.457Z,1013.19
2018-11-01T04:42:43.392Z,1013.2
2018-11-01T04:43:43.332Z,1013.18
2018-11-01T04:44:43.351Z,1013.11
2018-11-01T04:45:43.329Z,1013.13
2018-11-01T04:46:43.329Z,1013.13
2018-11-01T04:47:43.661Z,1013.09
2018-11-01T04:48:43.399Z,1013.1
2018-11-01T04:49:43.714Z,1013.06
2018-11-01T04:50:43.350Z,1013.12
2018-11-01T04:51:43.333Z,1013.13
2018-11-01T04:52:43.338Z,1013.13
2018-11-01T04:53:43.304Z,1013.16
2018-11-01T04:54:43.321Z,1013.24
2018-11-01T04:55:43.327Z,1013.2
2018-11-01T04:56:43.442Z,1013.13
2018-11-01T04:57:43.343Z,1013.17
2018-11-01T04:58:43.317Z,1013.11
2018-11-01T04:59:43.389Z,1013.14
2018-11-01T05:00:43.285Z,1013.16
2018-11-01T05:01:43.297Z,1013.17
2018-11-01T05:02:43.384Z,1013.12
2018-11-01T05:03:43.431Z,1013.14
2018-11-01T05:04:43.407Z,1013.07
2018-11-01T05:05:43.306Z,1013.07
2018-11-01T05:06:43.475Z,1013.05
2018-11-01T05:07:43.312Z,1013.09
2018-11-01T05:08:43.351Z,1013.08
2018-11-01T05:09:43.292Z,1013.06
2018-11-01T05:10:43.274Z,1013.1
2018-11-01T05:11:43.284Z,1013.12
2018-11-01T05:12:43.423Z,1013.04
2018-11-01T05:13:43.354Z,1013.09
2018-11-01T05:14:43.222Z,1013.05
2018-11-01T05:15:43.475Z,1013.07
2018-11-01T05:16:43.350Z,1013.12
2018-11-01T05:17:43.578Z,1013.14
2018-11-01T05:18:43.272Z,1013.15
2018-11-01T05:19:43.256Z,1013.2
2018-11-01T05:20:43.326Z,1013.16
2018-11-01T05:21:43.303Z,1013.11
2018-11-01T05:22:43.387Z,1013.07
2018-11-01T05:23:43.257Z,1013.03
2018-11-01T05:24:43.385Z,1013.02
2018-11-01T05:25:43.558Z,1013.01
2018-11-01T05:26:43.673Z,1013.03
2018-11-01T05:27:43.332Z,1013.05
2018-11-01T05:28:43.268Z,1013.04
2018-11-01T05:29:43.285Z,1013.04
2018-11-01T05:30:43.243Z,1013.02
2018-11-01T05:31:43.267Z,1013
2018-11-01T05:32:43.254Z,1012.99
2018-11-01T05:33:43.292Z,1012.97
2018-11-01T05:34:43.326Z,1012.97
2018-11-01T05:35:43.287Z,1012.95
2018-11-01T05:36:43.244Z,1013.03
2018-11-01T05:37:43.316Z,1013.03
2018-11-01T05:38:43.394Z,1013.02
2018-11-01T05:39:43.247Z,1013.1
2018-11-01T05:40:43.467Z,1013.1
2018-11-01T05:41:43.246Z,1013.12
2018-11-01T05:42:43.289Z,1013.07
2018-11-01T05:43:43.266Z,1013.03
2018-11-01T05:44:43.273Z,1013.03
2018-11-01T05:45:43.325Z,1013.01
2018-11-01T05:46:43.609Z,1013.02
2018-11-01T05:47:43.233Z,1013.05
2018-11-01T05:48:43.289Z,1013.04
2018-11-01T05:49:43.436Z,1013.06
2018-11-01T05:50:43.237Z,1013.13
2018-11-01T05:51:43.283Z,1013.11
2018-11-01T05:52:43.218Z,1013.15
2018-11-01T05:53:43.262Z,1013.15
2018-11-01T05:54:43.228Z,1013.08
2018-11-01T05:55:43.316Z,1013.06
2018-11-01T05:56:43.274Z,1013.04
2018-11-01T05:57:43.222Z,1012.98
2018-11-01T05:58:43.279Z,1012.96
2018-11-01T05:59:43.385Z,1012.98
2018-11-01T06:00:43.213Z,1012.96
2018-11-01T06:01:43.211Z,1012.95
2018-11-01T06:02:43.225Z,1012.89
2018-11-01T06:03:43.265Z,1012.9
2018-11-01T06:04:43.239Z,1012.91
2018-11-01T06:05:43.484Z,1012.87
2018-11-01T06:06:43.240Z,1012.81
2018-11-01T06:07:43.223Z,1012.88
2018-11-01T06:08:43.232Z,1012.91
2018-11-01T06:09:43.257Z,1012.97
2018-11-01T06:10:43.211Z,1013.04
2018-11-01T06:11:43.209Z,1012.99
2018-11-01T06:12:43.590Z,1013.05
2018-11-01T06:13:43.222Z,1013.03
2018-11-01T06:14:43.198Z,1013.08
2018-11-01T06:15:43.214Z,1013.11
2018-11-01T06:16:43.326Z,1013.11
2018-11-01T06:17:43.253Z,1013.09
2018-11-01T06:18:43.737Z,1013.13
2018-11-01T06:19:43.251Z,1013.08
2018-11-01T06:20:43.625Z,1013.02
2018-11-01T06:21:43.189Z,1013.09
2018-11-01T06:22:43.189Z,1013.06
2018-11-01T06:23:43.208Z,1013.1
2018-11-01T06:24:43.177Z,1013.12
2018-11-01T06:25:43.552Z,1013.17
2018-11-01T06:26:43.273Z,1013.25
2018-11-01T06:27:43.277Z,1013.31
2018-11-01T06:28:43.155Z,1013.37
2018-11-01T06:29:43.214Z,1013.38
2018-11-01T06:30:43.270Z,1013.42
2018-11-01T06:31:43.191Z,1013.36
2018-11-01T06:32:43.168Z,1013.34
2018-11-01T06:33:43.188Z,1013.33
2018-11-01T06:34:43.202Z,1013.35
2018-11-01T06:35:43.158Z,1013.34
2018-11-01T06:36:43.140Z,1013.31
2018-11-01T06:37:43.193Z,1013.26
2018-11-01T06:38:43.165Z,1013.21
2018-11-01T06:39:43.171Z,1013.19
2018-11-01T06:40:43.217Z,1013.26
2018-11-01T06:41:43.384Z,1013.23
2018-11-01T06:42:43.209Z,1013.25
2018-11-01T06:43:43.534Z,1013.23
2018-11-01T06:44:43.312Z,1013.27
2018-11-01T06:45:43.234Z,1013.27
2018-11-01T06:46:43.132Z,1013.28
2018-11-01T06:47:43.145Z,1013.27
2018-11-01T06:48:43.285Z,1013.24
2018-11-01T06:49:43.148Z,1013.25
2018-11-01T06:50:43.147Z,1013.3
2018-11-01T06:51:43.194Z,1013.32
2018-11-01T06:52:43.451Z,1013.35
2018-11-01T06:53:43.135Z,1013.35
2018-11-01T06:54:43.165Z,1013.35
2018-11-01T06:55:43.471Z,1013.3
2018-11-01T06:56:43.123Z,1013.28
2018-11-01T06:57:43.146Z,1013.31
2018-11-01T06:58:43.264Z,1013.24
2018-11-01T06:59:43.167Z,1013.23
2018-11-01T07:00:43.190Z,1013.19
2018-11-01T07:01:43.148Z,1013.16
2018-11-01T07:02:43.181Z,1013.12
2018-11-01T07:03:43.171Z,1013.11
2018-11-01T07:04:43.137Z,1013.1
2018-11-01T07:05:43.252Z,1013.06
2018-11-01T07:06:43.144Z,1013.07
2018-11-01T07:07:43.759Z,1013.03
2018-11-01T07:08:43.186Z,1013.02
2018-11-01T07:09:43.510Z,1013.01
2018-11-01T07:10:43.143Z,1013.01
2018-11-01T07:11:43.127Z,1013
2018-11-01T07:12:43.120Z,1013.04
2018-11-01T07:13:43.187Z,1013.03
2018-11-01T07:14:43.106Z,1013.06
2018-11-01T07:15:43.114Z,1013.14
2018-11-01T07:16:43.102Z,1013.13
2018-11-01T07:17:43.408Z,1013.18
2018-11-01T07:18:43.208Z,1013.16
2018-11-01T07:19:43.102Z,1013.2
2018-11-01T07:20:43.135Z,1013.14
2018-11-01T07:21:43.187Z,1013.06
2018-11-01T07:22:43.133Z,1013.02
2018-11-01T07:23:43.114Z,1013.03
2018-11-01T07:24:43.091Z,1013.09
2018-11-01T07:25:43.207Z,1013.08
2018-11-01T07:26:43.116Z,1013.06
2018-11-01T07:27:43.079Z,1013.1
2018-11-01T07:28:43.120Z,1013.11
2018-11-01T07:29:43.089Z,1013.07
2018-11-01T07:30:43.098Z,1013.07
2018-11-01T07:31:43.098Z,1013.11
2018-11-01T07:32:43.394Z,1013.13
2018-11-01T07:33:43.154Z,1013.16
2018-11-01T07:34:43.088Z,1013.18
2018-11-01T07:35:43.076Z,1013.18
2018-11-01T07:36:43.090Z,1013.21
2018-11-01T07:37:43.094Z,1013.16
2018-11-01T07:38:43.095Z,1013.14
2018-11-01T07:39:43.250Z,1013.13
2018-11-01T07:40:43.087Z,1013.12
2018-11-01T07:41:43.071Z,1013.09
2018-11-01T07:42:43.095Z,1013.08
2018-11-01T07:43:43.121Z,1013.04
2018-11-01T07:44:43.065Z,1013.01
2018-11-01T07:45:43.127Z,1012.95
2018-11-01T07:46:43.081Z,1012.95
2018-11-01T07:47:43.183Z,1012.93
2018-11-01T07:48:44.301Z,1012.94
2018-11-01T07:49:43.078Z,1012.95
2018-11-01T07:50:43.081Z,1012.89
2018-11-01T07:51:43.187Z,1012.85
2018-11-01T07:52:43.509Z,1012.84
2018-11-01T07:53:43.134Z,1012.89
2018-11-01T07:54:43.058Z,1012.85
2018-11-01T07:55:43.060Z,1012.83
2018-11-01T07:56:43.049Z,1012.78
2018-11-01T07:57:43.079Z,1012.79
2018-11-01T07:58:43.057Z,1012.78
2018-11-01T07:59:43.085Z,1012.79
2018-11-01T08:00:43.068Z,1012.74
2018-11-01T08:01:43.088Z,1012.76
2018-11-01T08:02:43.062Z,1012.75
2018-11-01T08:03:43.058Z,1012.74
2018-11-01T08:04:43.092Z,1012.75
2018-11-01T08:05:43.182Z,1012.79
2018-11-01T08:06:43.056Z,1012.82
2018-11-01T08:07:43.085Z,1012.84
2018-11-01T08:08:43.122Z,1012.89
2018-11-01T08:09:43.266Z,1012.93
2018-11-01T08:10:43.077Z,1012.94
2018-11-01T08:11:43.206Z,1012.95
2018-11-01T08:12:43.046Z,1013
2018-11-01T08:13:43.079Z,1012.97
2018-11-01T08:14:43.151Z,1013
2018-11-01T08:15:43.212Z,1013.02
2018-11-01T08:16:43.732Z,1013.04
2018-11-01T08:17:43.021Z,1013.06
2018-11-01T08:18:43.143Z,1013.09
2018-11-01T08:19:43.347Z,1013.11
2018-11-01T08:20:43.678Z,1013.12
2018-11-01T08:21:43.150Z,1013.14
2018-11-01T08:22:43.351Z,1013.21
2018-11-01T08:23:43.043Z,1013.22
2018-11-01T08:24:43.337Z,1013.25
2018-11-01T08:25:43.066Z,1013.28
2018-11-01T08:26:43.037Z,1013.31
2018-11-01T08:27:43.088Z,1013.33
2018-11-01T08:28:43.257Z,1013.35
2018-11-01T08:29:43.099Z,1013.4
2018-11-01T08:30:43.408Z,1013.38
2018-11-01T08:31:43.053Z,1013.37
2018-11-01T08:32:43.310Z,1013.45
2018-11-01T08:33:43.238Z,1013.52
2018-11-01T08:34:43.144Z,1013.55
2018-11-01T08:35:43.103Z,1013.67
2018-11-01T08:36:43.114Z,1013.76
2018-11-01T08:37:43.036Z,1013.79
2018-11-01T08:38:43.049Z,1013.83
2018-11-01T08:39:43.047Z,1013.8
2018-11-01T08:40:43.833Z,1013.78
2018-11-01T08:41:43.015Z,1013.81
2018-11-01T08:42:43.388Z,1013.77
2018-11-01T08:43:43.071Z,1013.82
2018-11-01T08:44:43.575Z,1013.87
2018-11-01T08:45:43.084Z,1013.89
2018-11-01T08:46:43.118Z,1013.93
2018-11-01T08:47:43.444Z,1013.92
2018-11-01T08:48:43.031Z,1013.9
2018-11-01T08:49:43.023Z,1013.93
2018-11-01T08:50:43.154Z,1013.91
2018-11-01T08:51:43.043Z,1013.9
2018-11-01T08:52:43.059Z,1013.93
2018-11-01T08:53:43.079Z,1014.05
2018-11-01T08:54:43.072Z,1014.05
2018-11-01T08:55:43.398Z,1013.98
2018-11-01T08:56:42.975Z,1013.96
2018-11-01T08:57:43.378Z,1013.99
2018-11-01T08:58:43.091Z,1014.04
2018-11-01T08:59:43.026Z,1014.08
2018-11-01T09:00:43.316Z,1014.16
2018-11-01T09:01:43.024Z,1014.18
2018-11-01T09:02:43.030Z,1014.19
2018-11-01T09:03:43.099Z,1014.15
2018-11-01T09:04:43.118Z,1014.18
2018-11-01T09:05:43.097Z,1014.23
2018-11-01T09:06:43.016Z,1014.26
2018-11-01T09:07:43.945Z,1014.28
2018-11-01T09:08:42.969Z,1014.33
2018-11-01T09:09:43.264Z,1014.32
2018-11-01T09:10:42.967Z,1014.31
2018-11-01T09:11:43.501Z,1014.25
2018-11-01T09:12:43.157Z,1014.24
2018-11-01T09:13:42.991Z,1014.19
2018-11-01T09:14:43.198Z,1014.26
2018-11-01T09:15:43.158Z,1014.32
2018-11-01T09:16:43.090Z,1014.32
2018-11-01T09:17:43.154Z,1014.34
2018-11-01T09:18:43.077Z,1014.37
2018-11-01T09:19:43.035Z,1014.43
2018-11-01T09:20:43.292Z,1014.32
2018-11-01T09:21:43.343Z,1014.25
2018-11-01T09:22:43.095Z,1014.28
2018-11-01T09:23:43.341Z,1014.26
2018-11-01T09:24:43.160Z,1014.21
2018-11-01T09:25:43.000Z,1014.14
2018-11-01T09:26:43.293Z,1014.2
2018-11-01T09:27:42.987Z,1014.18
2018-11-01T09:28:42.926Z,1014.16
2018-11-01T09:29:42.959Z,1014.23
2018-11-01T09:30:43.011Z,1014.29
2018-11-01T09:31:43.132Z,1014.34
2018-11-01T09:32:43.115Z,1014.57
2018-11-01T09:33:42.956Z,1014.62
2018-11-01T09:34:42.968Z,1014.67
2018-11-01T09:35:43.113Z,1014.6
2018-11-01T09:36:42.991Z,1014.52
2018-11-01T09:37:43.018Z,1014.49
2018-11-01T09:38:42.896Z,1014.48
2018-11-01T09:39:42.942Z,1014.42
2018-11-01T09:40:42.990Z,1014.43
2018-11-01T09:41:43.049Z,1014.51
2018-11-01T09:42:43.033Z,1014.53
2018-11-01T09:43:42.897Z,1014.52
2018-11-01T09:44:42.933Z,1014.48
2018-11-01T09:45:43.034Z,1014.45
2018-11-01T09:46:44.101Z,1014.47
2018-11-01T09:48:43.141Z,1014.39
2018-11-01T09:49:42.892Z,1014.38
2018-11-01T09:50:43.008Z,1014.41
2018-11-01T09:51:42.945Z,1014.48
2018-11-01T09:52:42.881Z,1014.54
2018-11-01T09:53:43.027Z,1014.59
2018-11-01T09:54:43.319Z,1014.64
2018-11-01T09:55:43.406Z,1014.75
2018-11-01T09:56:42.884Z,1014.74
2018-11-01T09:57:42.964Z,1014.7
2018-11-01T09:58:43.739Z,1014.69
2018-11-01T09:59:43.056Z,1014.64
2018-11-01T10:00:42.972Z,1014.59
2018-11-01T10:01:43.105Z,1014.55
2018-11-01T10:02:42.961Z,1014.48
2018-11-01T10:03:43.123Z,1014.49
2018-11-01T10:04:43.131Z,1014.48
2018-11-01T10:05:43.137Z,1014.51
2018-11-01T10:06:43.205Z,1014.52
2018-11-01T10:07:43.047Z,1014.49
2018-11-01T10:08:43.053Z,1014.48
2018-11-01T10:09:43.059Z,1014.36
2018-11-01T10:10:42.964Z,1014.34
2018-11-01T10:11:42.888Z,1014.29
2018-11-01T10:12:42.981Z,1014.3
2018-11-01T10:13:43.011Z,1014.33
2018-11-01T10:14:42.835Z,1014.32
2018-11-01T10:15:43.737Z,1014.24
2018-11-01T10:16:43.841Z,1014.2
2018-11-01T10:17:44.327Z,1014.21
2018-11-01T10:18:43.531Z,1014.23
2018-11-01T10:19:42.978Z,1014.27
2018-11-01T10:20:43.035Z,1014.21
2018-11-01T10:21:43.395Z,1014.19
2018-11-01T10:22:43.523Z,1014.15
2018-11-01T10:23:43.109Z,1014.12
2018-11-01T10:24:43.253Z,1014.08
2018-11-01T10:25:43.344Z,1013.96
2018-11-01T10:26:43.360Z,1013.87
2018-11-01T10:27:44.000Z,1013.85
2018-11-01T10:28:42.849Z,1013.71
2018-11-01T10:29:42.987Z,1013.64
2018-11-01T10:30:43.202Z,1013.58
2018-11-01T10:31:42.951Z,1013.51
2018-11-01T10:32:42.831Z,1013.52
2018-11-01T10:33:43.027Z,1013.54
2018-11-01T10:34:43.568Z,1013.52
2018-11-01T10:35:42.876Z,1013.54
2018-11-01T10:36:46.117Z,1013.55
2018-11-01T10:37:43.465Z,1013.52
2018-11-01T10:38:42.966Z,1013.49
2018-11-01T10:39:42.824Z,1013.45
2018-11-01T10:40:43.037Z,1013.46
2018-11-01T10:41:44.474Z,1013.39
2018-11-01T10:42:43.193Z,1013.36
2018-11-01T10:43:43.440Z,1013.37
2018-11-01T10:44:43.552Z,1013.32
2018-11-01T10:45:43.130Z,1013.33
2018-11-01T10:46:43.115Z,1013.32
2018-11-01T10:47:43.356Z,1013.22
2018-11-01T10:48:43.132Z,1013.22
2018-11-01T10:49:42.870Z,1013.18
2018-11-01T10:50:45.210Z,1013.18
2018-11-01T10:51:43.115Z,1013.25
2018-11-01T10:52:42.937Z,1013.29
2018-11-01T10:53:43.227Z,1013.35
2018-11-01T10:54:42.881Z,1013.34
2018-11-01T10:55:43.143Z,1013.33
2018-11-01T10:56:42.776Z,1013.33
2018-11-01T10:57:42.801Z,1013.38
2018-11-01T10:58:43.100Z,1013.38
2018-11-01T10:59:42.956Z,1013.37
2018-11-01T11:00:45.524Z,1013.38
2018-11-01T11:01:42.850Z,1013.37
2018-11-01T11:02:43.214Z,1013.33
2018-11-01T11:03:43.127Z,1013.28
2018-11-01T11:04:43.127Z,1013.23
2018-11-01T11:05:42.786Z,1013.1
2018-11-01T11:06:42.891Z,1013.12
2018-11-01T11:07:42.828Z,1013.07
2018-11-01T11:08:42.861Z,1013.08
2018-11-01T11:09:43.105Z,1013.1
2018-11-01T11:10:42.969Z,1013.12
2018-11-01T11:11:43.151Z,1013.18
2018-11-01T11:12:43.086Z,1013.22
2018-11-01T11:13:42.836Z,1013.19
2018-11-01T11:14:42.903Z,1013.13
2018-11-01T11:15:42.946Z,1013.16
2018-11-01T11:16:42.789Z,1013.15
2018-11-01T11:17:42.729Z,1013.15
2018-11-01T11:18:43.105Z,1013.12
2018-11-01T11:19:42.783Z,1013.2
2018-11-01T11:20:43.682Z,1013.24
2018-11-01T11:21:43.133Z,1013.28
2018-11-01T11:22:42.899Z,1013.34
2018-11-01T11:23:44.074Z,1013.31
2018-11-01T11:24:42.773Z,1013.32
2018-11-01T11:25:42.840Z,1013.28
2018-11-01T11:26:42.756Z,1013.25
2018-11-01T11:27:43.098Z,1013.3
2018-11-01T11:28:42.748Z,1013.35
2018-11-01T11:29:42.783Z,1013.47
2018-11-01T11:30:56.176Z,1013.6
2018-11-01T11:32:42.766Z,1013.69
2018-11-01T11:33:42.907Z,1013.65
2018-11-01T11:34:42.948Z,1013.63
2018-11-01T11:35:43.228Z,1013.66
2018-11-01T11:36:42.757Z,1013.56
2018-11-01T11:37:42.936Z,1013.61
2018-11-01T11:38:42.833Z,1013.59
2018-11-01T11:39:45.428Z,1013.63
2018-11-01T11:40:43.114Z,1013.63
2018-11-01T11:41:44.222Z,1013.59
2018-11-01T11:42:43.066Z,1013.58
2018-11-01T11:43:42.761Z,1013.61
2018-11-01T11:44:42.901Z,1013.55
2018-11-01T11:45:43.266Z,1013.62
2018-11-01T11:46:42.755Z,1013.6
2018-11-01T11:47:43.849Z,1013.53
2018-11-01T11:48:51.384Z,1013.45
2018-11-01T11:49:46.320Z,1013.45
2018-11-01T11:50:42.851Z,1013.44
2018-11-01T11:51:42.960Z,1013.42
2018-11-01T11:52:42.730Z,1013.42
2018-11-01T11:53:43.138Z,1013.46
2018-11-01T11:54:45.681Z,1013.44
2018-11-01T11:55:42.926Z,1013.44
2018-11-01T11:56:42.814Z,1013.4
2018-11-01T11:57:42.949Z,1013.42
2018-11-01T11:58:42.751Z,1013.46
2018-11-01T11:59:42.747Z,1013.48
2018-11-01T12:00:43.128Z,1013.53
2018-11-01T12:01:42.864Z,1013.55
2018-11-01T12:02:43.035Z,1013.56
2018-11-01T12:03:42.744Z,1013.65
2018-11-01T12:04:42.792Z,1013.75
2018-11-01T12:05:43.081Z,1013.86
2018-11-01T12:06:42.969Z,1013.95
2018-11-01T12:07:43.096Z,1014.04
2018-11-01T12:08:43.194Z,1014.06
2018-11-01T12:09:42.941Z,1014.11